Flight Track Log - Related Links

Times and Time Zones

All times are in EDT time to prevent confusion due to time zone crossing. See the UCA3596 flight status page for this flight to view local times or setup timezone preferences in your user account.

Time Position Orientation Groundspeed Altitude Reporting Facility
EDT Latitude Longitude Course Direction KTS MPH feet Rate Location/Type
Thu 12:40:40 PM 40.7000 -74.1500 37° Northeast 129 148 1,200  Level New York TRACON
Thu 12:41:40 PM 40.7333 -74.1167 37° Northeast 141 162 2,900 1,667 Climbing New York TRACON
Thu 12:43:40 PM 40.7833 -74.2000 308° West 151 174 6,200 1,567 Climbing New York TRACON
Thu 12:44:40 PM 40.8000 -74.2500 294° West 157 181 7,600 1,300 Climbing New York TRACON
Thu 12:45:40 PM 40.8333 -74.3000 311° West 177 204 8,800 1,150 Climbing New York TRACON
Thu 12:46:40 PM 40.8667 -74.3333 323° Northwest 195 224 9,900 1,200 Climbing New York TRACON
Thu 12:47:40 PM 40.9167 -74.3500 346° North 195 224 11,200 1,100 Climbing New York TRACON
Thu 12:48:40 PM 40.9833 -74.3833 339° North 200 230 12,100 450 Climbing New York TRACON
Thu 12:49:40 PM 41.0333 -74.4000 346° North 230 265 12,100 -45 Level New York TRACON
Thu 12:50:53 PM 41.1044 -74.4417 336° Northwest 263 303 12,000 -31 Descending New York Center
Thu 12:52:00 PM 41.1686 -74.4292 North  Level FlightAware Approximate
Thu 12:52:53 PM 41.2400 -74.5097 North 258 297 12,000  Level New York Center
Thu 12:53:51 PM 41.3136 -74.5442 341° North 263 303 12,000  Level New York Center
Thu 12:54:52 PM 41.3772 -74.5781 338° Northwest 270 311 12,000 -49 Level New York Center
Thu 12:55:53 PM 41.4333 -74.6422 319° Northwest 253 291 11,900 -50 Descending New York Center
Thu 12:56:53 PM 41.4706 -74.7192 303° West 247 284 11,900  Level New York Center
Thu 12:57:53 PM 41.5094 -74.7961 304° West 253 291 11,900  Level New York Center
Thu 12:58:52 PM 41.5467 -74.8706 304° West 253 291 11,900 50 Level New York Center
Thu 12:59:52 PM 41.5853 -74.9506 303° West 258 297 12,000 33 Climbing New York Center
Thu 01:01:53 PM 41.6592 -75.0994 303° West 258 297 12,000  Level New York Center
Thu 01:02:52 PM 41.6997 -75.1856 302° West 258 297 12,000  Level New York Center
Thu 01:03:53 PM 41.7383 -75.2631 304° West 253 291 12,000  Level New York Center
Thu 01:04:51 PM 41.7731 -75.3406 301° West 253 291 12,000 51 Level New York Center
Thu 01:05:51 PM 41.8097 -75.4097 305° West 253 291 12,100 -347 Climbing New York Center
Thu 01:06:52 PM 41.8461 -75.4931 300° West 260 299 11,300 -951 Descending New York Center
Thu 01:08:54 PM 41.9239 -75.6769 299° West 271 312 9,200 -1,061 Descending New York Center
Thu 01:09:53 PM 41.9497 -75.7625 292° West 259 298 8,100 -1,333 Descending New York Center
Thu 01:10:51 PM 41.9908 -75.8242 312° West 247 284 6,600 -1,315 Descending New York Center
Thu 01:12:51 PM 42.0861 -75.8792 306° West 194 223 4,200 -1,094 Descending New York Center
Thu 01:13:52 PM 42.1244 -75.9100 329° Northwest 174 200 3,300 -800 Descending New York Center
Thu 01:14:51 PM 42.1567 -75.9375 328° Northwest 153 176 2,600 1,890 Descending New York Center
Thu 01:16:53 PM 42.2225 -75.9989 258° West 137 158 9,000 2,133 Climbing New York Center
Thu 01:17:51 PM 42.2525 -76.0292 323° Northwest 137 158 9,000  Level New York Center
Thu 01:18:52 PM 42.2822 -76.0597 323° Northwest 137 158 9,000  Level New York Center
Thu 01:19:53 PM 42.3061 -76.0839 323° Northwest 137 158 9,000  Level New York Center

Login

Don't have an account? Register now (free) for customized features, flight alerts, and more!